Time;durP1;ratioP1;P1;durP2;ratioP2;P2;SDS_P1;SDS_P2;PMS_P1;PMS_P2;Temp;Humidity;BMP_temperature;BMP_pressure;BME280_temperature;BME280_humidity;BME280_pressure;Samples;Min_cycle;Max_cycle;Signal;HPM_P1;HPM_P2
2023/09/07 00:01:58;;;;;;;14.73;9.27;;;;;;;19.35;100.00;101918.63;5003500;28;20097;-87
2023/09/07 00:04:24;;;;;;;11.93;8.57;;;;;;;19.25;100.00;101913.13;5007549;28;20132;-87
2023/09/07 00:06:56;;;;;;;12.13;8.27;;;;;;;19.13;100.00;101915.00;5023404;28;20041;-89
2023/09/07 00:09:23;;;;;;;9.93;8.00;;;;;;;19.12;100.00;101915.97;5023441;28;20034;-90
2023/09/07 00:11:49;;;;;;;12.18;8.00;;;;;;;19.15;100.00;101913.03;5007278;28;20038;-87
2023/09/07 00:14:15;;;;;;;8.48;6.70;;;;;;;19.06;100.00;101912.91;5025847;28;20038;-87
2023/09/07 00:16:41;;;;;;;12.50;8.38;;;;;;;19.06;100.00;101913.78;5041081;28;20100;-89
2023/09/07 00:19:07;;;;;;;12.80;8.68;;;;;;;19.01;100.00;101905.19;5018026;28;20437;-89
2023/09/07 00:21:32;;;;;;;15.02;8.88;;;;;;;19.02;100.00;101912.31;5025198;28;20104;-90
2023/09/07 00:23:58;;;;;;;12.15;9.23;;;;;;;18.94;100.00;101922.03;5023549;28;20116;-90
2023/09/07 00:26:24;;;;;;;18.00;9.63;;;;;;;18.94;100.00;101911.22;5023447;28;20034;-87
2023/09/07 00:28:51;;;;;;;14.38;9.02;;;;;;;18.91;100.00;101908.78;5003821;28;20155;-89
2023/09/07 00:31:17;;;;;;;13.15;8.85;;;;;;;18.89;100.00;101911.59;5027428;28;20025;-87
2023/09/07 00:33:42;;;;;;;15.25;9.07;;;;;;;18.84;100.00;101903.88;5037385;28;20661;-86
2023/09/07 00:36:08;;;;;;;11.82;8.77;;;;;;;18.82;100.00;101910.38;5005560;28;20034;-88
2023/09/07 00:38:34;;;;;;;25.30;9.98;;;;;;;18.74;100.00;101908.31;5029612;28;20081;-88
2023/09/07 00:40:59;;;;;;;11.85;9.30;;;;;;;18.75;100.00;101910.03;5040476;28;20135;-90
2023/09/07 00:43:28;;;;;;;15.18;10.15;;;;;;;18.69;100.00;101915.94;5035571;28;20030;-88
2023/09/07 00:45:56;;;;;;;14.05;10.77;;;;;;;18.68;100.00;101907.91;5024729;28;20072;-90
2023/09/07 00:48:22;;;;;;;14.90;9.63;;;;;;;18.67;100.00;101907.03;5023772;28;20048;-89
2023/09/07 00:50:50;;;;;;;15.20;11.63;;;;;;;18.63;100.00;101911.00;5032392;28;20614;-89
2023/09/07 00:53:16;;;;;;;17.50;11.55;;;;;;;18.63;100.00;101902.88;5015092;28;20046;-88
2023/09/07 00:55:44;;;;;;;18.67;14.15;;;;;;;18.71;100.00;101905.84;5040780;28;20029;-87
2023/09/07 00:58:12;;;;;;;23.77;13.82;;;;;;;18.75;100.00;101909.16;5020947;28;20034;-89
2023/09/07 01:00:37;;;;;;;19.13;14.07;;;;;;;18.81;100.00;101906.81;5040470;28;20042;-88
2023/09/07 01:03:03;;;;;;;16.50;14.25;;;;;;;18.78;100.00;101906.22;5023701;28;20453;-87
2023/09/07 01:06:02;;;;;;;15.75;14.05;;;;;;;18.79;100.00;101903.38;5002328;28;20117;-87
2023/09/07 01:08:45;;;;;;;20.55;14.80;;;;;;;18.77;100.00;101908.03;5022714;28;20041;-88
2023/09/07 01:11:20;;;;;;;20.30;15.43;;;;;;;18.72;100.00;101909.41;5022196;28;20084;-88
2023/09/07 01:13:46;;;;;;;20.33;15.63;;;;;;;18.65;100.00;101906.31;5024741;28;21120;-88
2023/09/07 01:16:12;;;;;;;19.30;16.60;;;;;;;18.53;100.00;101907.31;5020050;28;20442;-89
2023/09/07 01:18:42;;;;;;;20.45;15.82;;;;;;;18.62;100.00;101906.53;5008583;28;20049;-88
2023/09/07 01:21:11;;;;;;;21.08;15.77;;;;;;;18.63;100.00;101903.75;5038188;28;20041;-89
2023/09/07 01:23:41;;;;;;;20.02;15.82;;;;;;;18.57;100.00;101897.94;5025996;28;20061;-88
2023/09/07 01:26:08;;;;;;;20.50;16.27;;;;;;;18.57;100.00;101906.91;5021624;28;20029;-90
2023/09/07 01:28:35;;;;;;;22.42;17.35;;;;;;;18.45;100.00;101899.78;5003264;28;20037;-90
2023/09/07 01:31:04;;;;;;;21.73;17.02;;;;;;;18.34;100.00;101905.19;5042935;28;20025;-87
2023/09/07 01:33:30;;;;;;;19.08;14.45;;;;;;;18.44;100.00;101899.94;5042290;28;20025;-90
2023/09/07 01:35:56;;;;;;;22.73;15.13;;;;;;;18.33;100.00;101890.84;5015219;28;20033;-89
2023/09/07 01:38:22;;;;;;;21.63;16.25;;;;;;;18.35;100.00;101896.97;5004651;28;20025;-89
2023/09/07 01:40:48;;;;;;;18.60;15.48;;;;;;;18.37;100.00;101902.25;5007698;28;20129;-89
2023/09/07 01:43:16;;;;;;;18.42;16.20;;;;;;;18.26;100.00;101896.84;5025320;28;20048;-90
2023/09/07 01:45:42;;;;;;;22.02;16.98;;;;;;;18.23;100.00;101897.09;5043955;28;20034;-88
2023/09/07 01:48:12;;;;;;;21.13;16.30;;;;;;;18.25;100.00;101897.81;5022485;28;20053;-89
2023/09/07 01:50:38;;;;;;;17.13;15.05;;;;;;;18.27;100.00;101891.34;5020987;28;20324;-88
2023/09/07 01:53:04;;;;;;;23.42;16.83;;;;;;;18.28;100.00;101898.44;5043416;28;20033;-89
2023/09/07 01:55:31;;;;;;;20.77;14.93;;;;;;;18.30;100.00;101898.31;5008896;28;20082;-89
2023/09/07 01:57:58;;;;;;;22.25;16.05;;;;;;;18.29;100.00;101894.75;5013385;28;20077;-89
2023/09/07 02:00:26;;;;;;;18.55;14.10;;;;;;;18.26;100.00;101895.00;5016057;28;20041;-87
2023/09/07 02:02:51;;;;;;;19.27;14.88;;;;;;;18.23;100.00;101894.41;5047221;28;20774;-90
2023/09/07 02:05:17;;;;;;;19.00;14.23;;;;;;;18.25;100.00;101897.81;5038268;28;20034;-87
2023/09/07 02:07:43;;;;;;;21.83;14.73;;;;;;;18.21;100.00;101890.94;5019945;28;20037;-87
2023/09/07 02:10:10;;;;;;;17.42;14.07;;;;;;;18.18;100.00;101891.19;5041200;28;20046;-89
2023/09/07 02:12:36;;;;;;;16.80;13.13;;;;;;;18.18;100.00;101888.50;5020562;28;20572;-90
2023/09/07 02:15:04;;;;;;;19.95;15.48;;;;;;;18.08;100.00;101885.66;5022389;28;20030;-89
2023/09/07 02:17:30;;;;;;;15.05;13.13;;;;;;;18.15;100.00;101894.97;5043193;28;20049;-90
2023/09/07 02:19:56;;;;;;;15.90;12.77;;;;;;;18.12;100.00;101892.50;5017857;28;20790;-87
2023/09/07 02:22:22;;;;;;;19.65;13.90;;;;;;;18.02;100.00;101894.22;5015339;28;20045;-88
2023/09/07 02:24:48;;;;;;;18.33;13.95;;;;;;;18.11;100.00;101888.97;5027201;28;20519;-88
2023/09/07 02:27:16;;;;;;;17.63;12.82;;;;;;;18.18;100.00;101883.09;5023674;28;20078;-89
2023/09/07 02:29:42;;;;;;;18.48;12.98;;;;;;;18.14;100.00;101885.16;5001700;28;20116;-87
2023/09/07 02:32:09;;;;;;;13.68;12.07;;;;;;;18.06;100.00;101885.75;5012555;28;20065;-90
2023/09/07 02:34:36;;;;;;;20.02;14.05;;;;;;;18.07;100.00;101873.13;5012645;28;21877;-90
2023/09/07 02:37:03;;;;;;;17.23;12.73;;;;;;;18.02;100.00;101872.63;5020217;28;20030;-87
2023/09/07 02:39:29;;;;;;;15.50;12.05;;;;;;;18.09;100.00;101877.44;5020959;28;20034;-89
2023/09/07 02:41:58;;;;;;;18.35;11.90;;;;;;;18.09;100.00;101876.56;5002912;28;20075;-88
2023/09/07 02:44:24;;;;;;;15.55;12.02;;;;;;;18.10;100.00;101878.28;5026913;28;20708;-89
2023/09/07 02:46:50;;;;;;;18.75;12.95;;;;;;;18.10;100.00;101876.44;5005878;28;20034;-88
2023/09/07 02:49:20;;;;;;;17.15;12.27;;;;;;;18.10;100.00;101875.59;5014585;28;20097;-89
2023/09/07 02:51:46;;;;;;;19.02;13.02;;;;;;;18.06;100.00;101880.34;5005197;28;20069;-88
2023/09/07 02:54:12;;;;;;;14.85;11.95;;;;;;;17.99;100.00;101883.69;5036056;28;20037;-87
2023/09/07 02:56:40;;;;;;;17.92;13.25;;;;;;;17.98;100.00;101879.25;5032964;28;20037;-88
2023/09/07 02:59:06;;;;;;;14.73;12.57;;;;;;;18.01;100.00;101882.56;5033800;28;20033;-88
2023/09/07 03:01:31;;;;;;;18.00;12.45;;;;;;;18.00;100.00;101878.16;5025778;28;20345;-88
2023/09/07 03:03:57;;;;;;;21.77;12.38;;;;;;;18.01;100.00;101882.56;5033509;28;20048;-89
2023/09/07 03:06:24;;;;;;;17.98;14.00;;;;;;;18.00;100.00;101883.53;5044763;28;20665;-89
2023/09/07 03:08:52;;;;;;;12.98;11.00;;;;;;;18.01;100.00;101887.09;5026228;28;20122;-88
2023/09/07 03:11:18;;;;;;;15.93;12.60;;;;;;;18.00;100.00;101882.69;5040255;28;21097;-87
2023/09/07 03:13:46;;;;;;;18.83;11.90;;;;;;;17.90;100.00;101879.84;5018756;28;20197;-87
2023/09/07 03:16:12;;;;;;;17.00;12.40;;;;;;;17.88;100.00;101880.97;5005203;28;20030;-90
2023/09/07 03:18:38;;;;;;;17.98;12.30;;;;;;;17.81;100.00;101883.25;5005312;28;20151;-89
2023/09/07 03:21:04;;;;;;;20.65;13.02;;;;;;;17.69;100.00;101887.72;5017160;28;20157;-88
2023/09/07 03:23:31;;;;;;;17.00;12.23;;;;;;;17.66;100.00;101884.41;5020537;28;20061;-89
2023/09/07 03:25:58;;;;;;;14.57;11.55;;;;;;;17.58;100.00;101883.16;5031266;28;20033;-89
2023/09/07 03:28:27;;;;;;;17.23;11.55;;;;;;;17.47;100.00;101888.53;5007461;28;20368;-87
2023/09/07 03:30:56;;;;;;;16.42;11.38;;;;;;;17.40;100.00;101884.53;5023869;28;20041;-89
2023/09/07 03:33:22;;;;;;;19.13;12.35;;;;;;;17.39;100.00;101887.38;5021751;28;20049;-89
2023/09/07 03:35:58;;;;;;;15.95;12.63;;;;;;;17.31;100.00;101872.59;5026754;28;20040;-90
2023/09/07 03:38:27;;;;;;;14.82;11.82;;;;;;;17.26;100.00;101882.88;5010610;28;20809;-88
2023/09/07 03:40:54;;;;;;;17.50;13.30;;;;;;;17.20;100.00;101874.41;5019567;28;20158;-90
2023/09/07 03:43:19;;;;;;;16.38;13.80;;;;;;;17.13;100.00;101879.41;5030238;28;20092;-87
2023/09/07 03:45:49;;;;;;;19.90;13.00;;;;;;;17.11;100.00;101881.34;5028202;28;20033;-89
2023/09/07 03:48:15;;;;;;;13.70;9.48;;;;;;;17.07;100.00;101885.25;5005834;28;20073;-89
2023/09/07 03:50:42;;;;;;;16.85;13.05;;;;;;;16.98;100.00;101886.78;5020218;28;20038;-90
2023/09/07 03:53:08;;;;;;;12.40;11.00;;;;;;;16.95;100.00;101883.44;5027564;28;20095;-90
2023/09/07 03:55:49;;;;;;;19.40;11.77;;;;;;;16.94;100.00;101887.13;5015696;28;20041;-90
2023/09/07 03:58:17;;;;;;;21.17;14.07;;;;;;;16.96;100.00;101890.56;5002144;28;20045;-89
2023/09/07 04:00:44;;;;;;;21.25;15.18;;;;;;;16.99;100.00;101895.72;5027382;28;20037;-90
2023/09/07 04:03:11;;;;;;;16.98;13.65;;;;;;;16.97;100.00;101890.47;5046192;28;20034;-89
2023/09/07 04:05:38;;;;;;;20.05;15.20;;;;;;;16.98;100.00;101885.94;5003726;28;20044;-89
2023/09/07 04:08:07;;;;;;;18.98;15.50;;;;;;;16.96;100.00;101883.31;5007952;28;20021;-90
2023/09/07 04:10:33;;;;;;;22.83;16.75;;;;;;;16.96;100.00;101887.84;5020772;28;20088;-89
2023/09/07 04:12:58;;;;;;;27.92;18.52;;;;;;;16.81;100.00;101892.53;5040283;28;20099;-88
2023/09/07 04:15:42;;;;;;;30.40;19.75;;;;;;;16.69;100.00;101896.09;5044836;28;20529;-88
2023/09/07 04:18:12;;;;;;;25.25;19.52;;;;;;;16.54;100.00;101895.38;5010764;28;20057;-87
2023/09/07 04:20:39;;;;;;;21.90;18.65;;;;;;;16.62;100.00;101902.88;5016100;28;20038;-90
2023/09/07 04:23:05;;;;;;;22.88;17.88;;;;;;;16.62;100.00;101903.78;5023095;28;20049;-87
2023/09/07 04:25:32;;;;;;;27.40;20.15;;;;;;;16.52;100.00;101900.88;5019127;28;20382;-90
2023/09/07 04:27:58;;;;;;;24.90;20.80;;;;;;;16.61;100.00;101904.72;5002275;28;20041;-87
2023/09/07 04:30:24;;;;;;;29.15;20.15;;;;;;;16.70;100.00;101903.19;5019508;28;20566;-86
2023/09/07 04:32:51;;;;;;;28.38;19.98;;;;;;;16.72;100.00;101904.88;5017313;28;20034;-87
2023/09/07 04:35:17;;;;;;;31.70;21.83;;;;;;;16.70;100.00;101900.50;5046584;28;20132;-88
2023/09/07 04:37:44;;;;;;;30.30;21.83;;;;;;;16.78;100.00;101898.16;5043981;28;20029;-90
2023/09/07 04:40:10;;;;;;;24.00;18.98;;;;;;;16.80;100.00;101898.91;5000001;28;20128;-88
2023/09/07 04:42:38;;;;;;;27.90;20.05;;;;;;;16.85;100.00;101896.72;5027466;28;20498;-90
2023/09/07 04:45:05;;;;;;;33.80;21.65;;;;;;;16.82;100.00;101891.59;5021391;28;20616;-90
2023/09/07 04:47:32;;;;;;;29.15;21.90;;;;;;;16.71;100.00;101895.03;5018534;28;20073;-89
2023/09/07 04:49:58;;;;;;;31.27;23.60;;;;;;;16.67;100.00;101907.00;5022187;28;20041;-89
2023/09/07 04:52:26;;;;;;;30.65;21.80;;;;;;;16.72;100.00;101898.63;5044792;28;20029;-89
2023/09/07 04:54:52;;;;;;;25.50;20.55;;;;;;;16.66;100.00;101899.84;5023044;28;20037;-89
2023/09/07 04:57:19;;;;;;;27.42;20.65;;;;;;;16.64;100.00;101904.50;5010392;28;20030;-90
2023/09/07 04:59:45;;;;;;;23.75;19.08;;;;;;;16.70;100.00;101911.28;5025558;28;20029;-88
2023/09/07 05:02:12;;;;;;;26.35;20.00;;;;;;;16.64;100.00;101904.50;5007491;28;20646;-88
2023/09/07 05:04:40;;;;;;;27.00;21.73;;;;;;;16.70;100.00;101911.28;4995834;28;20041;-90
2023/09/07 05:07:06;;;;;;;26.88;19.80;;;;;;;16.62;100.00;101909.16;5014787;28;20036;-89
2023/09/07 05:09:33;;;;;;;26.23;18.98;;;;;;;16.71;100.00;101907.59;5037928;28;20043;-89
2023/09/07 05:12:00;;;;;;;23.48;18.50;;;;;;;16.65;100.00;101918.84;5023934;28;20042;-88
2023/09/07 05:14:29;;;;;;;31.55;20.40;;;;;;;16.68;100.00;101913.22;5038232;28;20642;-87
2023/09/07 05:16:58;;;;;;;26.73;19.00;;;;;;;16.69;100.00;101912.25;5023016;28;20084;-88
2023/09/07 05:19:24;;;;;;;33.58;20.60;;;;;;;16.70;100.00;101913.97;5008318;28;20049;-88
2023/09/07 05:21:50;;;;;;;24.17;19.95;;;;;;;16.76;100.00;101919.81;4993688;28;20104;-90
2023/09/07 05:24:22;;;;;;;25.35;19.38;;;;;;;16.79;100.00;101924.13;5017189;28;20084;-90
2023/09/07 05:26:47;;;;;;;28.50;20.35;;;;;;;16.75;100.00;101920.78;5005446;28;20029;-88
2023/09/07 05:29:16;;;;;;;26.95;19.58;;;;;;;16.79;100.00;101916.03;5046373;28;20033;-88
2023/09/07 05:31:42;;;;;;;25.50;17.80;;;;;;;16.81;100.00;101917.63;5038161;28;20105;-87
2023/09/07 05:34:10;;;;;;;24.05;17.50;;;;;;;16.94;100.00;101914.06;5019283;28;20113;-88
2023/09/07 05:36:36;;;;;;;26.92;19.02;;;;;;;16.93;100.00;101920.44;5026919;28;20042;-88
2023/09/07 05:39:03;;;;;;;25.05;16.58;;;;;;;16.95;100.00;101922.03;5024615;28;20038;-90
2023/09/07 05:41:32;;;;;;;25.33;18.35;;;;;;;16.96;100.00;101928.28;5022495;28;20030;-88
2023/09/07 05:43:58;;;;;;;25.75;16.98;;;;;;;16.96;100.00;101931.81;5024382;28;20073;-88
2023/09/07 05:46:26;;;;;;;27.50;18.48;;;;;;;16.91;100.00;101933.13;5043520;28;20030;-88
2023/09/07 05:48:52;;;;;;;29.00;18.95;;;;;;;16.89;100.00;101935.97;5016289;28;20022;-88
2023/09/07 05:51:21;;;;;;;26.00;19.08;;;;;;;16.87;100.00;101946.00;5013263;28;20029;-90
2023/09/07 05:53:49;;;;;;;26.13;17.88;;;;;;;16.87;100.00;101945.09;5037750;28;20037;-89
2023/09/07 05:56:15;;;;;;;24.30;17.40;;;;;;;16.92;100.00;101948.31;5012811;28;20979;-89
2023/09/07 05:58:41;;;;;;;30.10;18.33;;;;;;;16.96;100.00;101950.69;5019096;28;20041;-88
2023/09/07 06:01:10;;;;;;;24.00;16.60;;;;;;;17.08;100.00;101943.56;5005679;28;20045;-87
2023/09/07 06:03:36;;;;;;;24.52;17.50;;;;;;;17.06;100.00;101957.13;5023913;28;20570;-89
2023/09/07 06:06:02;;;;;;;23.63;18.63;;;;;;;17.12;100.00;101950.47;5003222;28;20101;-89
2023/09/07 06:08:28;;;;;;;23.65;17.90;;;;;;;17.17;100.00;101955.47;5016386;28;20041;-89
2023/09/07 06:10:57;;;;;;;24.70;19.10;;;;;;;17.20;100.00;101961.53;5020013;28;20034;-89
2023/09/07 06:13:24;;;;;;;28.52;19.05;;;;;;;17.24;100.00;101959.47;5022406;28;20030;-89
2023/09/07 06:15:49;;;;;;;24.08;19.52;;;;;;;17.23;100.00;101966.69;5040486;28;20034;-90
2023/09/07 06:18:15;;;;;;;25.55;19.52;;;;;;;17.33;100.00;101964.19;5016755;28;20041;-88
2023/09/07 06:20:41;;;;;;;24.80;19.60;;;;;;;17.32;100.00;101970.56;5009120;28;20067;-88
2023/09/07 06:23:07;;;;;;;29.83;21.33;;;;;;;17.44;100.00;101966.94;5017837;28;20852;-89
2023/09/07 06:25:33;;;;;;;29.13;19.85;;;;;;;17.45;100.00;101962.41;5024446;28;20037;-87
2023/09/07 06:28:03;;;;;;;25.13;19.63;;;;;;;17.64;100.00;101967.28;5006068;28;20339;-88
2023/09/07 06:30:30;;;;;;;24.75;20.42;;;;;;;17.74;100.00;101960.25;5031702;28;20040;-87
2023/09/07 06:32:59;;;;;;;24.95;19.42;;;;;;;17.87;100.00;101969.13;5029404;28;20072;-89
2023/09/07 06:35:26;;;;;;;28.50;19.45;;;;;;;17.95;100.00;101963.16;5018667;28;20037;-89
2023/09/07 06:37:52;;;;;;;24.77;19.17;;;;;;;18.16;100.00;101963.34;5017088;28;20038;-88
2023/09/07 06:40:22;;;;;;;24.50;18.35;;;;;;;18.44;100.00;101960.22;5019969;28;20037;-88
2023/09/07 06:42:52;;;;;;;21.85;16.73;;;;;;;18.63;100.00;101959.63;5047487;28;20037;-88
2023/09/07 06:45:23;;;;;;;24.00;17.50;;;;;;;18.86;100.00;101961.34;5017174;28;20036;-87
2023/09/07 06:47:50;;;;;;;26.50;18.50;;;;;;;19.04;100.00;101971.69;5025530;28;20197;-88
2023/09/07 06:50:17;;;;;;;26.90;19.00;;;;;;;19.28;100.00;101960.72;5027650;28;20034;-91
2023/09/07 06:52:42;;;;;;;23.90;16.90;;;;;;;19.49;100.00;101960.78;5019270;28;20042;-88
2023/09/07 06:55:09;;;;;;;22.65;17.00;;;;;;;19.66;100.00;101955.69;5023334;28;20033;-88
2023/09/07 06:57:35;;;;;;;20.35;17.17;;;;;;;19.98;100.00;101957.53;5020282;28;20414;-90
2023/09/07 07:00:06;;;;;;;27.83;17.45;;;;;;;20.08;100.00;101947.63;5020135;28;20038;-87
2023/09/07 07:02:34;;;;;;;21.45;16.58;;;;;;;20.20;100.00;101945.69;4998361;28;20681;-91
2023/09/07 07:05:02;;;;;;;20.92;15.98;;;;;;;20.37;100.00;101950.50;5024292;28;20030;-87
2023/09/07 07:07:32;;;;;;;22.00;17.75;;;;;;;20.64;100.00;101949.97;5012429;28;20037;-89
2023/09/07 07:09:57;;;;;;;19.52;14.95;;;;;;;20.88;100.00;101946.94;5027896;28;20090;-87
2023/09/07 07:12:26;;;;;;;20.38;15.88;;;;;;;21.12;100.00;101943.84;5027211;28;20036;-88
2023/09/07 07:14:58;;;;;;;20.67;15.60;;;;;;;21.36;100.00;101939.94;5023105;28;20040;-90
2023/09/07 07:17:24;;;;;;;21.73;15.48;;;;;;;21.51;100.00;101932.25;5021949;28;20132;-86
2023/09/07 07:19:50;;;;;;;15.85;14.23;;;;;;;21.65;100.00;101934.53;5020999;28;20112;-90
2023/09/07 07:22:15;;;;;;;18.88;13.55;;;;;;;21.83;100.00;101931.94;5045894;28;20546;-91
2023/09/07 07:24:41;;;;;;;20.05;14.02;;;;;;;21.92;100.00;101931.09;4998432;28;20038;-90
2023/09/07 07:27:07;;;;;;;17.90;13.95;;;;;;;22.21;100.00;101928.34;5046241;28;20421;-90
2023/09/07 07:29:34;;;;;;;18.88;14.23;;;;;;;22.45;100.00;101934.16;5018228;28;20048;-90
2023/09/07 07:32:01;;;;;;;21.58;12.93;;;;;;;22.40;100.00;101927.47;5012408;28;20060;-91
2023/09/07 07:34:27;;;;;;;17.35;12.88;;;;;;;22.67;100.00;101926.63;5027871;28;20037;-89
2023/09/07 07:36:55;;;;;;;18.88;14.07;;;;;;;22.70;100.00;101929.06;5035726;28;20037;-90
2023/09/07 07:39:21;;;;;;;18.25;13.13;;;;;;;22.78;100.00;101926.44;5041459;28;20037;-87
2023/09/07 07:41:46;;;;;;;16.52;13.65;;;;;;;23.19;100.00;101935.13;5033171;28;20214;-92
2023/09/07 07:44:12;;;;;;;19.65;13.90;;;;;;;23.44;100.00;101938.97;5000369;28;21048;-87
2023/09/07 07:46:38;;;;;;;19.17;12.70;;;;;;;23.58;100.00;101946.59;5028018;28;20037;-90
2023/09/07 07:49:04;;;;;;;17.75;12.77;;;;;;;23.93;94.44;101939.44;5009300;28;20044;-91
2023/09/07 07:51:30;;;;;;;21.30;13.02;;;;;;;24.10;96.74;101940.41;5004063;28;20037;-90
2023/09/07 07:53:59;;;;;;;16.77;13.02;;;;;;;24.04;91.99;101940.03;5010959;28;20030;-92
2023/09/07 07:56:35;;;;;;;18.70;12.32;;;;;;;24.18;92.59;101941.34;5030401;28;20145;-89
2023/09/07 07:59:02;;;;;;;16.60;12.30;;;;;;;24.40;91.72;101937.28;5021592;28;20062;-88
2023/09/07 08:01:29;;;;;;;16.00;13.05;;;;;;;24.55;91.78;101934.81;5007202;28;20034;-89
2023/09/07 08:03:56;;;;;;;18.17;12.45;;;;;;;24.56;88.88;101943.84;5005414;28;20038;-87
2023/09/07 08:06:26;;;;;;;16.10;11.82;;;;;;;24.53;90.22;101945.00;5025815;28;20033;-88
2023/09/07 08:08:51;;;;;;;16.45;11.82;;;;;;;24.60;84.43;101935.19;5006433;28;20100;-90
2023/09/07 08:11:21;;;;;;;16.67;12.45;;;;;;;24.32;86.11;101939.06;5026564;28;20041;-91
2023/09/07 08:13:59;;;;;;;15.95;11.30;;;;;;;24.21;89.13;101929.28;4999730;28;20038;-87
2023/09/07 08:16:24;;;;;;;13.50;11.65;;;;;;;24.24;87.32;101939.84;5033327;28;20047;-87
2023/09/07 08:18:50;;;;;;;14.25;12.50;;;;;;;24.14;88.15;101931.78;5030143;28;20146;-91
2023/09/07 08:21:17;;;;;;;14.05;12.55;;;;;;;23.98;92.42;101932.50;5006986;28;20093;-90
2023/09/07 08:23:47;;;;;;;21.25;12.23;;;;;;;24.04;92.10;101926.41;5011879;28;20045;-88
2023/09/07 08:26:15;;;;;;;14.55;11.70;;;;;;;24.19;89.67;101923.97;5003423;28;20068;-88
2023/09/07 08:28:46;;;;;;;17.75;13.43;;;;;;;24.14;91.20;101929.03;5010812;28;20124;-89
2023/09/07 08:31:13;;;;;;;17.85;13.93;;;;;;;24.03;90.50;101924.72;5047210;28;20029;-90
2023/09/07 08:33:40;;;;;;;19.55;14.23;;;;;;;24.00;93.36;101913.28;5022766;28;20092;-89
2023/09/07 08:36:06;;;;;;;19.83;14.88;;;;;;;24.06;92.56;101919.97;5029381;28;20451;-89
2023/09/07 08:38:32;;;;;;;15.57;12.88;;;;;;;24.08;92.13;101920.66;5035093;28;20084;-90
2023/09/07 08:41:04;;;;;;;15.98;13.35;;;;;;;24.21;94.61;101915.66;5045996;28;20916;-89
2023/09/07 08:43:40;;;;;;;16.30;12.30;;;;;;;24.26;96.04;101924.22;5012132;28;20941;-89
2023/09/07 08:46:17;;;;;;;18.33;12.38;;;;;;;24.25;92.42;101911.59;5024361;28;20882;-89
2023/09/07 08:48:44;;;;;;;16.17;12.32;;;;;;;24.24;95.25;101907.13;5007340;28;20025;-87
2023/09/07 08:51:12;;;;;;;18.23;12.85;;;;;;;24.36;96.89;101914.06;5008281;28;20981;-90
2023/09/07 08:53:39;;;;;;;14.15;11.85;;;;;;;24.37;89.37;101907.59;5024234;28;20034;-87
2023/09/07 08:56:09;;;;;;;26.23;15.15;;;;;;;24.58;92.69;101903.63;5029871;28;20773;-90
2023/09/07 08:58:36;;;;;;;14.68;11.30;;;;;;;24.69;92.43;101903.31;5013108;28;20079;-92
2023/09/07 09:01:02;;;;;;;16.75;9.75;;;;;;;24.82;87.94;101906.47;4998801;28;20030;-90
2023/09/07 09:03:29;;;;;;;12.10;9.70;;;;;;;24.77;85.28;101900.63;5008454;28;20037;-88
2023/09/07 09:05:56;;;;;;;14.07;9.80;;;;;;;24.99;87.28;101905.47;5043786;28;20037;-87
2023/09/07 09:08:24;;;;;;;14.27;9.38;;;;;;;24.94;86.38;101909.72;5029396;28;20036;-89
2023/09/07 09:11:03;;;;;;;27.00;10.75;;;;;;;25.17;88.24;101905.41;5011484;28;20100;-88
2023/09/07 09:13:33;;;;;;;109.22;30.88;;;;;;;25.29;92.43;101898.59;5043622;28;21496;-87
2023/09/07 09:16:02;;;;;;;59.03;19.05;;;;;;;25.40;89.76;101899.28;5028721;28;20125;-91
2023/09/07 09:18:28;;;;;;;39.95;15.68;;;;;;;25.40;85.40;101891.94;4984056;28;20046;-88
2023/09/07 09:20:55;;;;;;;12.55;6.97;;;;;;;25.51;84.75;101899.84;4993153;28;20923;-87
2023/09/07 09:23:21;;;;;;;11.55;7.28;;;;;;;25.65;84.22;101895.56;5001954;28;20046;-88
2023/09/07 09:25:49;;;;;;;6.40;5.60;;;;;;;25.62;76.79;101895.91;5026570;28;20094;-90
2023/09/07 09:28:15;;;;;;;7.78;5.43;;;;;;;25.59;75.66;101885.31;4991673;28;20192;-89
2023/09/07 09:30:45;;;;;;;6.88;5.07;;;;;;;25.73;73.63;101901.03;5020664;28;20090;-91
2023/09/07 09:33:10;;;;;;;8.02;5.65;;;;;;;25.82;72.97;101893.72;5025258;28;20113;-90
2023/09/07 09:35:38;;;;;;;7.38;5.22;;;;;;;25.93;72.48;101892.53;5026182;28;20538;-87
2023/09/07 09:38:04;;;;;;;11.02;4.70;;;;;;;25.91;72.56;101889.97;4999735;28;20037;-89
2023/09/07 09:40:36;;;;;;;7.93;5.18;;;;;;;26.10;74.48;101880.53;4989080;28;20072;-90
2023/09/07 09:43:04;;;;;;;11.27;5.90;;;;;;;26.09;72.82;101887.88;5009318;28;20054;-89
2023/09/07 09:45:35;;;;;;;9.05;5.50;;;;;;;26.18;72.33;101875.03;4992480;28;20044;-89
2023/09/07 09:48:05;;;;;;;9.57;5.35;;;;;;;26.15;72.13;101874.53;5022411;28;20041;-88
2023/09/07 09:50:31;;;;;;;11.93;5.60;;;;;;;25.91;71.52;101865.38;5009592;28;20053;-89
2023/09/07 09:52:58;;;;;;;9.32;5.57;;;;;;;26.06;70.89;101874.56;5026700;28;20026;-88
2023/09/07 09:55:31;;;;;;;5.85;5.13;;;;;;;26.15;73.64;101878.13;5010419;28;20156;-87
2023/09/07 09:57:57;;;;;;;9.95;5.20;;;;;;;26.27;71.65;101874.00;5026154;28;20100;-90
2023/09/07 10:00:26;;;;;;;9.18;5.30;;;;;;;26.47;73.78;101870.91;4999867;28;20034;-88
2023/09/07 10:02:56;;;;;;;7.90;5.00;;;;;;;26.55;73.32;101866.22;4995848;28;20027;-91
2023/09/07 10:05:23;;;;;;;15.70;5.63;;;;;;;26.41;69.67;101864.22;5027546;28;20148;-92
2023/09/07 10:07:50;;;;;;;9.50;5.18;;;;;;;26.45;69.60;101870.22;5008910;28;20040;-89
2023/09/07 10:10:19;;;;;;;9.90;5.22;;;;;;;26.51;69.49;101859.44;5010705;28;20128;-89
2023/09/07 10:12:51;;;;;;;11.02;6.35;;;;;;;26.60;73.26;101869.28;5006473;28;21181;-88
2023/09/07 10:15:26;;;;;;;7.90;5.40;;;;;;;26.56;69.82;101864.38;5023998;28;20077;-90
2023/09/07 10:18:15;;;;;;;10.38;5.43;;;;;;;26.51;67.69;101861.31;5002778;28;20065;-89
2023/09/07 10:20:51;;;;;;;5.88;5.10;;;;;;;26.49;67.99;101850.53;5048367;28;20766;-90
2023/09/07 10:23:18;;;;;;;7.28;4.90;;;;;;;26.68;68.13;101853.88;5029747;28;20045;-91
2023/09/07 10:25:49;;;;;;;6.82;5.22;;;;;;;26.70;68.25;101855.38;5032900;28;20029;-88
2023/09/07 10:28:25;;;;;;;5.50;4.72;;;;;;;26.87;68.38;101850.72;5036539;28;20033;-90
2023/09/07 10:31:13;;;;;;;6.53;5.53;;;;;;;26.92;66.62;101851.00;5053498;28;20076;-88
2023/09/07 10:33:39;;;;;;;7.82;4.85;;;;;;;26.98;67.32;101846.69;5016109;28;20890;-90
2023/09/07 10:36:05;;;;;;;10.88;5.32;;;;;;;26.96;65.42;101841.41;5053364;28;20044;-90
2023/09/07 10:38:33;;;;;;;6.45;4.68;;;;;;;27.02;67.62;101840.69;5030720;28;20030;-92
2023/09/07 10:41:02;;;;;;;13.98;5.40;;;;;;;26.82;64.68;101832.09;5008018;28;20029;-89
2023/09/07 10:43:33;;;;;;;7.60;5.07;;;;;;;26.96;64.71;101832.31;5013046;28;20045;-92
2023/09/07 10:46:01;;;;;;;8.90;5.05;;;;;;;27.15;65.48;101828.31;5045237;28;20022;-88
2023/09/07 10:48:29;;;;;;;10.00;5.55;;;;;;;27.16;64.20;101821.78;5034086;28;20029;-89
2023/09/07 10:50:56;;;;;;;10.13;4.75;;;;;;;27.26;67.36;101827.88;5038616;28;20037;-88
2023/09/07 10:53:31;;;;;;;8.95;4.93;;;;;;;27.40;68.38;101820.75;5023456;28;20034;-90
2023/09/07 10:56:03;;;;;;;8.00;4.88;;;;;;;27.45;66.85;101819.16;5034950;28;20041;-91
2023/09/07 10:58:34;;;;;;;8.25;4.78;;;;;;;27.33;62.50;101813.28;5000752;28;20034;-92
2023/09/07 11:01:03;;;;;;;7.70;4.80;;;;;;;27.45;63.72;101816.41;5015263;28;20046;-88
2023/09/07 11:03:29;;;;;;;11.60;4.97;;;;;;;27.56;63.91;101813.25;5020002;28;20118;-90
2023/09/07 11:06:03;;;;;;;8.75;5.07;;;;;;;27.58;63.64;101810.31;5034939;28;20037;-90
2023/09/07 11:08:33;;;;;;;7.43;4.38;;;;;;;27.40;59.89;101809.78;5047607;28;20034;-90
2023/09/07 11:11:02;;;;;;;6.68;4.68;;;;;;;27.64;65.34;101812.31;5010043;28;20038;-88